createdAt,value
2018-11-13T00:01:03.961Z,101190.29
2018-11-13T00:03:33.205Z,101200.93
2018-11-13T00:06:19.065Z,101197.09
2018-11-13T00:08:48.429Z,101205.00
2018-11-13T00:11:17.430Z,101210.98
2018-11-13T00:13:46.414Z,101214.81
2018-11-13T00:16:15.414Z,101214.80
2018-11-13T00:18:44.446Z,101217.25
2018-11-13T00:21:13.486Z,101219.70
2018-11-13T00:23:42.525Z,101218.34
2018-11-13T00:26:11.590Z,101223.52
2018-11-13T00:28:40.680Z,101236.61
2018-11-13T00:31:09.647Z,101243.97
2018-11-13T00:33:38.654Z,101236.61
2018-11-13T00:36:07.653Z,101239.33
2018-11-13T00:38:36.696Z,101241.50
2018-11-13T00:41:06.311Z,101237.69
2018-11-13T00:43:35.652Z,101249.41
2018-11-13T00:46:04.755Z,101256.47
2018-11-13T00:48:33.720Z,101260.57
2018-11-13T00:51:02.907Z,101256.73
2018-11-13T00:53:31.982Z,101266.78
2018-11-13T00:56:01.024Z,101276.85
2018-11-13T00:58:30.094Z,101276.02
2018-11-13T01:00:59.110Z,101272.77
2018-11-13T01:03:28.109Z,101272.79
2018-11-13T01:05:57.123Z,101280.98
2018-11-13T01:08:26.126Z,101285.09
2018-11-13T01:10:55.106Z,101291.63
2018-11-13T01:13:24.075Z,101292.98
2018-11-13T01:15:53.570Z,101293.81
2018-11-13T01:18:23.351Z,101307.70
2018-11-13T01:20:52.308Z,101304.69
2018-11-13T01:23:21.873Z,101313.69
2018-11-13T01:25:50.843Z,101315.34
2018-11-13T01:28:19.808Z,101322.41
2018-11-13T01:30:48.867Z,101328.42
2018-11-13T01:33:17.868Z,101327.88
2018-11-13T01:35:46.849Z,101342.87
2018-11-13T01:38:15.806Z,101341.24
2018-11-13T01:40:44.816Z,101354.30
2018-11-13T01:43:13.810Z,101352.67
2018-11-13T01:45:42.797Z,101356.77
2018-11-13T01:48:11.807Z,101356.24
2018-11-13T01:50:40.855Z,101367.41
2018-11-13T01:53:09.800Z,101373.41
2018-11-13T01:55:38.764Z,101373.15
2018-11-13T01:58:07.777Z,101376.67
2018-11-13T02:00:36.797Z,101380.47
2018-11-13T02:03:05.765Z,101382.39
2018-11-13T02:05:34.874Z,101375.87
2018-11-13T02:08:03.884Z,101378.86
2018-11-13T02:10:32.864Z,101390.58
2018-11-13T02:13:01.940Z,101394.67
2018-11-13T02:15:30.973Z,101400.41
2018-11-13T02:17:59.896Z,101397.95
2018-11-13T02:20:28.971Z,101397.95
2018-11-13T02:22:58.105Z,101410.22
2018-11-13T02:25:27.128Z,101406.42
2018-11-13T02:27:56.145Z,101401.50
2018-11-13T02:30:25.220Z,101408.86
2018-11-13T02:32:54.335Z,101410.73
2018-11-13T02:35:23.466Z,101415.39
2018-11-13T02:37:53.131Z,101412.37
2018-11-13T02:40:22.096Z,101413.47
2018-11-13T02:42:51.063Z,101418.36
2018-11-13T02:45:20.676Z,101410.72
2018-11-13T02:47:49.727Z,101424.61
2018-11-13T02:50:20.138Z,101420.26
2018-11-13T02:52:49.217Z,101431.16
2018-11-13T02:55:18.242Z,101422.42
2018-11-13T02:57:47.752Z,101433.33
2018-11-13T03:00:19.395Z,101437.41
2018-11-13T03:02:48.568Z,101438.20
2018-11-13T03:05:19.004Z,101442.03
2018-11-13T03:07:47.979Z,101443.66
2018-11-13T03:10:18.137Z,101447.75
2018-11-13T03:12:47.197Z,101445.03
2018-11-13T03:15:17.245Z,101453.73
2018-11-13T03:17:46.314Z,101456.72
2018-11-13T03:20:20.244Z,101462.20
2018-11-13T03:22:49.797Z,101466.28
2018-11-13T03:25:21.135Z,101457.05
2018-11-13T03:27:50.125Z,101468.73
2018-11-13T03:30:21.286Z,101462.49
2018-11-13T03:32:50.353Z,101460.56
2018-11-13T03:35:19.396Z,101468.73
2018-11-13T03:37:48.414Z,101481.56
2018-11-13T03:40:17.712Z,101479.91
2018-11-13T03:42:47.729Z,101497.35
2018-11-13T03:45:17.333Z,101495.69
2018-11-13T03:47:46.296Z,101506.09
2018-11-13T03:50:18.499Z,101508.81
2018-11-13T03:52:48.196Z,101512.90
2018-11-13T03:55:17.917Z,101509.91
2018-11-13T03:57:47.395Z,101517.52
2018-11-13T04:00:19.862Z,101528.98
2018-11-13T04:02:48.892Z,101528.41
2018-11-13T04:05:18.772Z,101529.78
2018-11-13T04:07:49.022Z,101537.95
2018-11-13T04:10:20.381Z,101533.34
2018-11-13T04:12:49.526Z,101546.66
2018-11-13T04:15:20.168Z,101542.02
2018-11-13T04:17:49.262Z,101552.91
2018-11-13T04:20:19.508Z,101550.48
2018-11-13T04:22:48.788Z,101552.67
2018-11-13T04:25:17.852Z,101557.59
2018-11-13T04:27:46.952Z,101561.98
2018-11-13T04:30:17.504Z,101570.71
2018-11-13T04:32:46.631Z,101571.52
2018-11-13T04:35:16.701Z,101577.53
2018-11-13T04:37:45.664Z,101579.42
2018-11-13T04:40:16.063Z,101588.95
2018-11-13T04:42:47.205Z,101586.23
2018-11-13T04:45:17.429Z,101594.94
2018-11-13T04:47:48.352Z,101590.30
2018-11-13T04:50:18.488Z,101601.75
2018-11-13T04:52:48.168Z,101611.03
2018-11-13T04:55:17.462Z,101611.83
2018-11-13T04:57:47.892Z,101613.19
2018-11-13T05:00:18.404Z,101625.72
2018-11-13T05:02:47.821Z,101627.64
2018-11-13T05:05:18.011Z,101629.30
2018-11-13T05:07:48.700Z,101635.55
2018-11-13T05:10:17.734Z,101644.03
2018-11-13T05:12:48.123Z,101644.33
2018-11-13T05:15:17.169Z,101650.61
2018-11-13T05:17:46.822Z,101662.88
2018-11-13T05:20:16.631Z,101664.77
2018-11-13T05:22:45.706Z,101671.59
2018-11-13T05:25:16.468Z,101675.14
2018-11-13T05:27:45.531Z,101684.15
2018-11-13T05:30:16.213Z,101674.08
2018-11-13T05:32:45.313Z,101685.25
2018-11-13T05:35:15.496Z,101690.44
2018-11-13T05:37:45.074Z,101693.39
2018-11-13T05:40:17.461Z,101693.95
2018-11-13T05:42:46.532Z,101701.56
2018-11-13T05:45:17.796Z,101706.98
2018-11-13T05:47:46.818Z,101718.94
2018-11-13T05:50:17.500Z,101718.11
2018-11-13T05:52:48.581Z,101724.92
2018-11-13T05:55:17.784Z,101719.47
2018-11-13T05:57:46.826Z,101724.39
2018-11-13T06:00:19.112Z,101724.92
2018-11-13T06:02:48.089Z,101736.64
2018-11-13T06:05:17.081Z,101738.50
2018-11-13T06:07:46.176Z,101738.19
2018-11-13T06:10:15.147Z,101746.09
2018-11-13T06:12:44.147Z,101750.98
2018-11-13T06:15:13.188Z,101757.22
2018-11-13T06:17:42.273Z,101765.39
2018-11-13T06:20:12.829Z,101770.58
2018-11-13T06:22:41.909Z,101769.21
2018-11-13T06:25:13.114Z,101777.66
2018-11-13T06:27:43.577Z,101775.20
2018-11-13T06:30:16.912Z,101778.22
2018-11-13T06:32:46.542Z,101782.31
2018-11-13T06:35:15.528Z,101792.42
2018-11-13T06:37:45.361Z,101796.78
2018-11-13T06:40:14.320Z,101801.44
2018-11-13T06:42:43.336Z,101807.98
2018-11-13T06:45:18.571Z,101809.04
2018-11-13T06:47:48.385Z,101820.73
2018-11-13T06:50:17.378Z,101819.31
2018-11-13T06:52:47.718Z,101825.52
2018-11-13T06:55:21.920Z,101829.34
2018-11-13T06:57:50.972Z,101827.98
2018-11-13T07:00:20.009Z,101836.42
2018-11-13T07:02:48.937Z,101843.53
2018-11-13T07:05:18.653Z,101846.56
2018-11-13T07:07:47.979Z,101847.92
2018-11-13T07:10:19.219Z,101852.77
2018-11-13T07:12:49.319Z,101855.48
2018-11-13T07:15:19.644Z,101870.94
2018-11-13T07:17:50.760Z,101874.14
2018-11-13T07:20:21.994Z,101862.12
2018-11-13T07:22:51.914Z,101878.47
2018-11-13T07:25:21.312Z,101869.73
2018-11-13T07:27:51.165Z,101877.65
2018-11-13T07:30:20.863Z,101877.17
2018-11-13T07:32:49.862Z,101873.93
2018-11-13T07:35:19.918Z,101878.86
2018-11-13T07:37:50.884Z,101877.29
2018-11-13T07:40:19.974Z,101880.10
2018-11-13T07:42:48.975Z,101877.95
2018-11-13T07:45:18.138Z,101887.48
2018-11-13T07:47:47.761Z,101890.77
2018-11-13T07:50:16.877Z,101894.81
2018-11-13T07:52:46.741Z,101896.70
2018-11-13T07:55:16.953Z,101905.44
2018-11-13T07:57:46.087Z,101917.46
2018-11-13T08:00:17.260Z,101921.85
2018-11-13T08:02:47.802Z,101926.52
2018-11-13T08:05:16.775Z,101925.42
2018-11-13T08:07:45.724Z,101937.99
2018-11-13T08:10:15.295Z,101938.00
2018-11-13T08:12:45.031Z,101940.47
2018-11-13T08:15:15.408Z,101946.80
2018-11-13T08:17:45.094Z,101953.68
2018-11-13T08:20:15.716Z,101960.82
2018-11-13T08:22:44.867Z,101969.10
2018-11-13T08:25:14.053Z,101966.16
2018-11-13T08:27:44.230Z,101980.16
2018-11-13T08:30:15.940Z,101981.27
2018-11-13T08:32:49.817Z,101982.15
2018-11-13T08:35:18.737Z,101989.28
2018-11-13T08:37:48.546Z,101999.14
2018-11-13T08:40:18.695Z,102012.52
2018-11-13T08:42:49.548Z,102018.23
2018-11-13T08:45:18.566Z,102027.46
2018-11-13T08:47:47.660Z,102033.96
2018-11-13T08:50:17.070Z,102035.01
2018-11-13T08:52:46.804Z,102039.58
2018-11-13T08:55:16.188Z,102030.34
2018-11-13T08:57:45.608Z,102043.46
2018-11-13T09:00:18.101Z,102045.14
2018-11-13T09:02:47.877Z,102047.13
2018-11-13T09:05:17.180Z,102046.09
2018-11-13T09:07:46.245Z,102040.73
2018-11-13T09:10:16.702Z,102048.14
2018-11-13T09:12:46.114Z,102050.92
2018-11-13T09:15:16.734Z,102051.59
2018-11-13T09:17:45.881Z,102056.31
2018-11-13T09:20:17.280Z,102070.57
2018-11-13T09:22:46.490Z,102068.42
2018-11-13T09:25:19.664Z,102073.35
2018-11-13T09:27:50.263Z,102077.70
2018-11-13T09:30:20.706Z,102081.80
2018-11-13T09:32:49.956Z,102077.45
2018-11-13T09:35:19.617Z,102079.34
2018-11-13T09:37:48.687Z,102096.25
2018-11-13T09:40:21.025Z,102095.45
2018-11-13T09:42:51.277Z,102097.08
2018-11-13T09:45:20.531Z,102099.55
2018-11-13T09:47:49.626Z,102098.97
2018-11-13T09:50:20.801Z,102109.05
2018-11-13T09:52:52.029Z,102115.88
2018-11-13T09:55:22.363Z,102115.05
2018-11-13T09:57:51.497Z,102114.25
2018-11-13T10:00:22.834Z,102111.83
2018-11-13T10:02:55.117Z,102110.47
2018-11-13T10:05:24.169Z,102126.06
2018-11-13T10:07:53.707Z,102124.44
2018-11-13T10:10:22.925Z,102125.01
2018-11-13T10:12:53.229Z,102128.83
2018-11-13T10:15:25.977Z,102126.95
2018-11-13T10:17:55.196Z,102127.78
2018-11-13T10:20:24.083Z,102123.12
2018-11-13T10:22:54.290Z,102132.72
2018-11-13T10:25:23.359Z,102134.92
2018-11-13T10:27:53.822Z,102135.45
2018-11-13T10:30:24.704Z,102140.65
2018-11-13T10:32:54.329Z,102143.95
2018-11-13T10:35:24.568Z,102139.91
2018-11-13T10:37:54.366Z,102148.94
2018-11-13T10:40:24.624Z,102154.14
2018-11-13T10:42:53.991Z,102147.36
2018-11-13T10:45:29.720Z,102151.23
2018-11-13T10:47:58.916Z,102160.04
2018-11-13T10:50:28.278Z,102159.25
2018-11-13T10:52:57.524Z,102163.62
2018-11-13T10:55:26.566Z,102166.34
2018-11-13T10:57:55.628Z,102176.47
2018-11-13T11:00:32.762Z,102177.84
2018-11-13T11:03:06.004Z,102171.54
2018-11-13T11:05:34.968Z,102170.17
2018-11-13T11:08:04.001Z,102166.34
2018-11-13T11:10:32.982Z,102166.34
2018-11-13T11:13:02.261Z,102177.84
2018-11-13T11:15:32.065Z,102175.95
2018-11-13T11:18:02.210Z,102177.62
2018-11-13T11:20:31.293Z,102180.67
2018-11-13T11:23:00.344Z,102177.98
2018-11-13T11:25:29.460Z,102185.08
2018-11-13T11:27:58.540Z,102170.05
2018-11-13T11:30:27.660Z,102170.62
2018-11-13T11:32:56.666Z,102161.90
2018-11-13T11:35:25.868Z,102165.73
2018-11-13T11:37:54.900Z,102169.04
2018-11-13T11:40:24.001Z,102164.94
2018-11-13T11:42:53.034Z,102166.31
2018-11-13T11:45:22.133Z,102172.56
2018-11-13T11:47:51.327Z,102170.62
2018-11-13T11:50:20.432Z,102171.42
2018-11-13T11:52:50.481Z,102171.95
2018-11-13T11:55:20.193Z,102171.42
2018-11-13T11:57:49.242Z,102179.92
2018-11-13T12:00:19.949Z,102179.09
2018-11-13T12:02:49.097Z,102175.87
2018-11-13T12:05:18.370Z,102171.51
2018-11-13T12:07:47.405Z,102170.16
2018-11-13T12:10:17.186Z,102172.09
2018-11-13T12:12:46.621Z,102180.37
2018-11-13T12:15:16.185Z,102177.94
2018-11-13T12:17:46.552Z,102182.05
2018-11-13T12:20:16.419Z,102176.88
2018-11-13T12:22:50.196Z,102186.19
2018-11-13T12:25:21.975Z,102190.64
2018-11-13T12:27:53.777Z,102186.27
2018-11-13T12:30:24.847Z,102187.14
2018-11-13T12:32:53.935Z,102197.25
2018-11-13T12:35:23.586Z,102192.09
2018-11-13T12:37:52.706Z,102192.35
2018-11-13T12:40:22.966Z,102191.78
2018-11-13T12:42:52.894Z,102193.14
2018-11-13T12:45:21.908Z,102198.04
2018-11-13T12:47:50.914Z,102200.50
2018-11-13T12:50:20.706Z,102196.11
2018-11-13T12:52:49.702Z,102198.80
2018-11-13T12:55:20.565Z,102195.23
2018-11-13T12:57:49.573Z,102205.58
2018-11-13T13:00:21.480Z,102197.38
2018-11-13T13:02:50.612Z,102199.55
2018-11-13T13:05:19.676Z,102200.69
2018-11-13T13:07:49.716Z,102196.33
2018-11-13T13:10:19.806Z,102190.11
2018-11-13T13:12:48.787Z,102179.48
2018-11-13T13:15:18.843Z,102184.42
2018-11-13T13:17:48.073Z,102181.45
2018-11-13T13:20:20.247Z,102182.02
2018-11-13T13:22:50.201Z,102178.49
2018-11-13T13:25:20.136Z,102177.39
2018-11-13T13:27:49.220Z,102176.33
2018-11-13T13:30:19.640Z,102169.50
2018-11-13T13:32:49.398Z,102172.27
2018-11-13T13:35:55.069Z,102171.20
2018-11-13T13:38:24.158Z,102170.94
2018-11-13T13:40:54.417Z,102168.47
2018-11-13T13:43:23.950Z,102172.87
2018-11-13T13:45:59.125Z,102166.03
2018-11-13T13:48:28.400Z,102169.03
2018-11-13T13:50:57.733Z,102163.53
2018-11-13T13:53:28.431Z,102170.10
2018-11-13T13:55:58.803Z,102162.70
2018-11-13T13:58:28.893Z,102164.33
2018-11-13T14:00:58.721Z,102165.43
2018-11-13T14:03:27.592Z,102159.09
2018-11-13T14:05:56.743Z,102159.66
2018-11-13T14:08:25.745Z,102157.19
2018-11-13T14:10:54.792Z,102165.36
2018-11-13T14:13:23.916Z,102161.79
2018-11-13T14:15:53.766Z,102169.19
2018-11-13T14:18:22.800Z,102166.42
2018-11-13T14:20:51.846Z,102162.59
2018-11-13T14:23:20.962Z,102154.38
2018-11-13T14:25:50.105Z,102172.16
2018-11-13T14:28:19.471Z,102165.28
2018-11-13T14:30:48.653Z,102170.22
2018-11-13T14:33:17.782Z,102166.95
2018-11-13T14:35:46.924Z,102173.78
2018-11-13T14:38:15.838Z,102175.72
2018-11-13T14:40:46.027Z,102173.02
2018-11-13T14:43:15.470Z,102165.66
2018-11-13T14:45:44.908Z,102167.30
2018-11-13T14:48:14.741Z,102167.86
2018-11-13T14:50:44.249Z,102161.59
2018-11-13T14:53:13.890Z,102155.36
2018-11-13T14:55:44.543Z,102160.84
2018-11-13T14:58:15.088Z,102149.36
2018-11-13T15:00:44.485Z,102159.77
2018-11-13T15:03:16.564Z,102169.91
2018-11-13T15:05:45.623Z,102161.41
2018-11-13T15:08:14.941Z,102166.34
2018-11-13T15:10:47.713Z,102157.03
2018-11-13T15:13:16.966Z,102159.27
2018-11-13T15:15:46.038Z,102162.84
2018-11-13T15:18:15.128Z,102166.67
2018-11-13T15:20:44.704Z,102172.67
2018-11-13T15:23:14.645Z,102171.88
2018-11-13T15:25:43.725Z,102182.25
2018-11-13T15:28:14.102Z,102181.64
2018-11-13T15:30:48.680Z,102188.74
2018-11-13T15:33:19.205Z,102188.41
2018-11-13T15:35:48.320Z,102188.91
2018-11-13T15:38:17.382Z,102175.72
2018-11-13T15:40:46.406Z,102176.52
2018-11-13T15:43:15.462Z,102183.28
2018-11-13T15:45:44.618Z,102185.17
2018-11-13T15:48:14.925Z,102178.56
2018-11-13T15:50:44.285Z,102172.52
2018-11-13T15:53:13.537Z,102179.84
2018-11-13T15:55:43.639Z,102181.96
2018-11-13T15:58:12.730Z,102171.82
2018-11-13T16:00:42.669Z,102166.58
2018-11-13T16:03:20.327Z,102169.00
2018-11-13T16:05:52.446Z,102165.95
2018-11-13T16:08:22.064Z,102167.55
2018-11-13T16:10:52.032Z,102180.36
2018-11-13T16:13:21.505Z,102184.67
2018-11-13T16:15:50.556Z,102191.72
2018-11-13T16:18:22.035Z,102196.30
2018-11-13T16:20:51.097Z,102199.02
2018-11-13T16:23:22.253Z,102200.34
2018-11-13T16:25:51.403Z,102208.80
2018-11-13T16:28:20.470Z,102204.66
2018-11-13T16:30:50.063Z,102212.27
2018-11-13T16:33:18.970Z,102215.52
2018-11-13T16:35:48.190Z,102220.70
2018-11-13T16:38:18.469Z,102224.45
2018-11-13T16:40:47.346Z,102230.73
2018-11-13T16:43:16.338Z,102230.42
2018-11-13T16:45:45.369Z,102231.20
2018-11-13T16:48:14.586Z,102224.06
2018-11-13T16:50:43.571Z,102218.03
2018-11-13T16:53:13.378Z,102220.18
2018-11-13T16:55:47.382Z,102226.45
2018-11-13T16:58:17.134Z,102224.79
2018-11-13T17:00:46.380Z,102223.16
2018-11-13T17:03:16.437Z,102221.78
2018-11-13T17:05:45.499Z,102220.12
2018-11-13T17:08:14.600Z,102232.40
2018-11-13T17:10:44.409Z,102230.23
2018-11-13T17:13:13.588Z,102233.49
2018-11-13T17:15:42.724Z,102226.92
2018-11-13T17:18:13.599Z,102223.63
2018-11-13T17:20:41.231Z,102223.94
2018-11-13T17:23:11.130Z,102217.11
2018-11-13T17:25:40.356Z,102207.25
2018-11-13T17:28:09.536Z,102221.16
2018-11-13T17:30:38.860Z,102223.89
2018-11-13T17:33:09.510Z,102224.14
2018-11-13T17:35:38.908Z,102222.00
2018-11-13T17:38:08.056Z,102214.64
2018-11-13T17:40:37.816Z,102226.36
2018-11-13T17:43:08.020Z,102225.30
2018-11-13T17:45:39.419Z,102229.66
2018-11-13T17:48:09.546Z,102228.52
2018-11-13T17:50:39.581Z,102230.13
2018-11-13T17:53:09.165Z,102228.19
2018-11-13T17:55:38.322Z,102221.93
2018-11-13T17:58:09.723Z,102217.53
2018-11-13T18:00:40.133Z,102223.55
2018-11-13T18:03:12.284Z,102229.00
2018-11-13T18:05:42.509Z,102219.68
2018-11-13T18:08:12.099Z,102227.34
2018-11-13T18:10:42.263Z,102227.64
2018-11-13T18:13:11.363Z,102231.17
2018-11-13T18:15:40.396Z,102227.64
2018-11-13T18:18:09.942Z,102236.36
2018-11-13T18:20:40.368Z,102228.95
2018-11-13T18:23:09.766Z,102228.63
2018-11-13T18:25:39.590Z,102227.22
2018-11-13T18:28:08.769Z,102229.67
2018-11-13T18:30:38.675Z,102233.72
2018-11-13T18:33:08.783Z,102230.66
2018-11-13T18:35:39.156Z,102235.01
2018-11-13T18:38:09.800Z,102226.24
2018-11-13T18:40:38.849Z,102228.12
2018-11-13T18:43:09.199Z,102236.25
2018-11-13T18:45:39.730Z,102231.83
2018-11-13T18:48:08.742Z,102231.80
2018-11-13T18:50:41.321Z,102234.76
2018-11-13T18:53:10.339Z,102230.92
2018-11-13T18:55:39.295Z,102238.52
2018-11-13T18:58:08.379Z,102237.16
2018-11-13T19:00:38.807Z,102239.30
2018-11-13T19:03:09.228Z,102229.20
2018-11-13T19:05:39.287Z,102235.47
2018-11-13T19:08:09.174Z,102226.17
2018-11-13T19:10:42.096Z,102233.52
2018-11-13T19:13:19.141Z,102223.97
2018-11-13T19:15:50.829Z,102222.61
2018-11-13T19:18:20.788Z,102224.81
2018-11-13T19:20:50.486Z,102222.08
2018-11-13T19:23:20.071Z,102212.53
2018-11-13T19:25:49.028Z,102209.28
2018-11-13T19:28:18.077Z,102209.86
2018-11-13T19:30:47.094Z,102204.16
2018-11-13T19:33:16.933Z,102205.27
2018-11-13T19:35:46.085Z,102208.52
2018-11-13T19:38:15.066Z,102201.48
2018-11-13T19:40:44.128Z,102203.12
2018-11-13T19:43:14.389Z,102199.30
2018-11-13T19:45:43.059Z,102202.08
2018-11-13T19:48:13.163Z,102194.17
2018-11-13T19:50:42.194Z,102198.56
2018-11-13T19:53:11.203Z,102190.97
2018-11-13T19:55:40.437Z,102195.33
2018-11-13T19:58:09.529Z,102187.20
2018-11-13T20:00:39.302Z,102186.94
2018-11-13T20:03:09.528Z,102188.58
2018-11-13T20:05:40.055Z,102185.85
2018-11-13T20:08:09.738Z,102190.25
2018-11-13T20:10:40.119Z,102184.80
2018-11-13T20:13:10.104Z,102183.17
2018-11-13T20:15:39.592Z,102177.19
2018-11-13T20:18:08.621Z,102177.99
2018-11-13T20:20:37.698Z,102181.55
2018-11-13T20:23:07.943Z,102183.50
2018-11-13T20:25:37.203Z,102178.34
2018-11-13T20:28:06.363Z,102189.53
2018-11-13T20:30:36.639Z,102182.18
2018-11-13T20:33:06.038Z,102181.92
2018-11-13T20:35:35.866Z,102179.47
2018-11-13T20:38:05.402Z,102174.59
2018-11-13T20:40:37.853Z,102168.34
2018-11-13T20:43:09.007Z,102162.11
2018-11-13T20:45:39.106Z,102156.91
2018-11-13T20:48:08.384Z,102167.03
2018-11-13T20:50:38.321Z,102156.91
2018-11-13T20:53:07.364Z,102163.74
2018-11-13T20:55:36.667Z,102161.02
2018-11-13T20:58:06.465Z,102155.55
2018-11-13T21:00:37.706Z,102153.61
2018-11-13T21:03:07.332Z,102157.48
2018-11-13T21:05:38.064Z,102148.73
2018-11-13T21:08:08.318Z,102160.53
2018-11-13T21:10:41.281Z,102146.32
2018-11-13T21:13:10.705Z,102153.72
2018-11-13T21:15:39.798Z,102158.65
2018-11-13T21:18:08.771Z,102153.46
2018-11-13T21:20:38.096Z,102165.52
2018-11-13T21:23:07.083Z,102151.61
2018-11-13T21:25:36.077Z,102148.63
2018-11-13T21:28:06.127Z,102147.80
2018-11-13T21:30:37.439Z,102154.36
2018-11-13T21:33:07.658Z,102163.68
2018-11-13T21:35:36.833Z,102160.39
2018-11-13T21:38:06.447Z,102150.58
2018-11-13T21:40:35.470Z,102136.94
2018-11-13T21:43:04.504Z,102129.30
2018-11-13T21:45:33.557Z,102132.56
2018-11-13T21:48:02.812Z,102140.75
2018-11-13T21:50:31.784Z,102141.84
2018-11-13T21:53:01.419Z,102151.67
2018-11-13T21:55:30.944Z,102153.04
2018-11-13T21:58:00.265Z,102158.50
2018-11-13T22:00:32.114Z,102165.31
2018-11-13T22:03:02.466Z,102167.52
2018-11-13T22:05:32.065Z,102168.32
2018-11-13T22:08:01.156Z,102164.23
2018-11-13T22:10:30.124Z,102164.53
2018-11-13T22:12:59.362Z,102157.70
2018-11-13T22:15:29.514Z,102154.45
2018-11-13T22:17:58.571Z,102149.53
2018-11-13T22:20:27.698Z,102144.91
2018-11-13T22:22:58.203Z,102150.11
2018-11-13T22:25:27.957Z,102152.61
2018-11-13T22:27:58.159Z,102150.98
2018-11-13T22:30:28.694Z,102144.16
2018-11-13T22:32:57.830Z,102144.43
2018-11-13T22:35:26.894Z,102138.97
2018-11-13T22:37:55.955Z,102132.46
2018-11-13T22:40:27.182Z,102139.33
2018-11-13T22:42:56.403Z,102135.77
2018-11-13T22:45:26.644Z,102130.30
2018-11-13T22:47:57.339Z,102133.03
2018-11-13T22:50:28.718Z,102128.67
2018-11-13T22:52:58.252Z,102130.84
2018-11-13T22:55:27.250Z,102127.58
2018-11-13T22:57:57.041Z,102119.69
2018-11-13T23:00:38.293Z,102116.38
2018-11-13T23:03:08.657Z,102118.28
2018-11-13T23:05:37.871Z,102118.55
2018-11-13T23:08:08.473Z,102114.14
2018-11-13T23:10:37.525Z,102109.78
2018-11-13T23:13:06.744Z,102114.72
2018-11-13T23:15:35.666Z,102108.42
2018-11-13T23:18:05.018Z,102107.31
2018-11-13T23:20:52.355Z,102103.22
2018-11-13T23:23:39.939Z,102105.16
2018-11-13T23:26:23.980Z,102096.70
2018-11-13T23:29:10.453Z,102099.96
2018-11-13T23:31:58.089Z,102099.96
2018-11-13T23:34:43.389Z,102100.22
2018-11-13T23:37:26.722Z,102094.23
2018-11-13T23:40:09.692Z,102093.40
2018-11-13T23:42:56.593Z,102094.23
2018-11-13T23:45:41.605Z,102092.88
2018-11-13T23:48:29.613Z,102091.52
2018-11-13T23:50:59.020Z,102094.77
2018-11-13T23:53:47.637Z,102095.61
2018-11-13T23:56:16.839Z,102096.97
2018-11-13T23:59:01.120Z,102090.45
